Blawenburg, New Jersey
Current Conditions -  °F | °C
As of 3:53 PM on Friday 31 Oct 2014 (Local Time) from KTTN Reporting Station
Overcast Overcast  
Wind Chill: 10°   Ceiling: 3900
Heat Index: 10°   Visibility: 10mi
Dew Point:   Wind: 8mph
Humidity: 54%   Direction: 30°NNE
Pressure: 29.89"   Gusts: NA
Location:  40.41°N, 74.7°W
Report Text: KTTN 311953Z 03007KT 10SM BKN039 OVC055 10/01 A2989 RMK AO2 SLP116 T01000011
Loading
Personal Weather Stations






























Interactive Weather Map
Tropical Storm Tracking
New forecast layout! Learn more

10-Day Weather Forecast

Advertisements
Track Severe Weather on mobile